sensor_id;sensor_type;location;lat;lon;timestamp;pressure;altitude;pressure_sealevel;temperature;humidity
51099;BME280;37146;48.210;16.234;2023-06-24T00:00:42;99086.38;;;16.38;100.00
51099;BME280;37146;48.210;16.234;2023-06-24T00:03:08;99087.47;;;16.36;100.00
51099;BME280;37146;48.210;16.234;2023-06-24T00:05:33;99077.44;;;16.38;100.00
51099;BME280;37146;48.210;16.234;2023-06-24T00:07:59;99097.78;;;16.31;100.00
51099;BME280;37146;48.210;16.234;2023-06-24T00:10:27;99101.53;;;16.28;100.00
51099;BME280;37146;48.210;16.234;2023-06-24T00:12:52;99101.47;;;16.17;100.00
51099;BME280;37146;48.210;16.234;2023-06-24T00:15:17;99103.19;;;16.18;100.00
51099;BME280;37146;48.210;16.234;2023-06-24T00:17:43;99094.59;;;16.13;100.00
51099;BME280;37146;48.210;16.234;2023-06-24T00:20:08;99088.72;;;16.19;100.00
51099;BME280;37146;48.210;16.234;2023-06-24T00:22:36;99093.34;;;16.30;100.00
51099;BME280;37146;48.210;16.234;2023-06-24T00:25:01;99091.34;;;16.20;100.00
51099;BME280;37146;48.210;16.234;2023-06-24T00:27:26;99094.53;;;16.26;100.00
51099;BME280;37146;48.210;16.234;2023-06-24T00:29:52;99099.94;;;16.26;100.00
51099;BME280;37146;48.210;16.234;2023-06-24T00:32:17;99101.09;;;16.34;100.00
51099;BME280;37146;48.210;16.234;2023-06-24T00:34:42;99097.44;;;16.35;100.00
51099;BME280;37146;48.210;16.234;2023-06-24T00:37:09;99092.13;;;16.34;100.00
51099;BME280;37146;48.210;16.234;2023-06-24T00:39:34;99101.09;;;16.34;100.00
51099;BME280;37146;48.210;16.234;2023-06-24T00:41:59;99107.53;;;16.45;100.00
51099;BME280;37146;48.210;16.234;2023-06-24T00:44:24;99106.25;;;16.37;100.00
51099;BME280;37146;48.210;16.234;2023-06-24T00:46:49;99100.75;;;16.39;100.00
51099;BME280;37146;48.210;16.234;2023-06-24T00:49:15;99102.97;;;16.45;100.00
51099;BME280;37146;48.210;16.234;2023-06-24T00:51:41;99106.91;;;16.41;100.00
51099;BME280;37146;48.210;16.234;2023-06-24T00:54:12;99105.88;;;16.31;100.00
51099;BME280;37146;48.210;16.234;2023-06-24T00:56:37;99107.81;;;16.29;100.00
51099;BME280;37146;48.210;16.234;2023-06-24T00:59:07;99108.03;;;16.26;100.00
51099;BME280;37146;48.210;16.234;2023-06-24T01:01:33;99103.25;;;16.29;100.00
51099;BME280;37146;48.210;16.234;2023-06-24T01:04:00;99111.91;;;16.34;100.00
51099;BME280;37146;48.210;16.234;2023-06-24T01:06:26;99107.06;;;16.27;100.00
51099;BME280;37146;48.210;16.234;2023-06-24T01:08:56;99121.81;;;16.34;100.00
51099;BME280;37146;48.210;16.234;2023-06-24T01:11:22;99125.25;;;16.36;100.00
51099;BME280;37146;48.210;16.234;2023-06-24T01:13:47;99127.97;;;16.36;100.00
51099;BME280;37146;48.210;16.234;2023-06-24T01:16:14;99125.03;;;16.39;100.00
51099;BME280;37146;48.210;16.234;2023-06-24T01:18:46;99120.41;;;16.41;100.00
51099;BME280;37146;48.210;16.234;2023-06-24T01:21:17;99120.84;;;16.35;100.00
51099;BME280;37146;48.210;16.234;2023-06-24T01:29:02;99128.72;;;16.38;100.00
51099;BME280;37146;48.210;16.234;2023-06-24T01:31:45;99130.03;;;16.32;100.00
51099;BME280;37146;48.210;16.234;2023-06-24T01:36:40;99127.34;;;16.32;100.00
51099;BME280;37146;48.210;16.234;2023-06-24T01:39:07;99141.69;;;16.33;100.00
51099;BME280;37146;48.210;16.234;2023-06-24T01:41:40;99133.38;;;16.36;100.00
51099;BME280;37146;48.210;16.234;2023-06-24T01:44:05;99134.81;;;16.29;100.00
51099;BME280;37146;48.210;16.234;2023-06-24T01:46:34;99134.34;;;16.35;100.00
51099;BME280;37146;48.210;16.234;2023-06-24T01:49:01;99135.94;;;16.37;100.00
51099;BME280;37146;48.210;16.234;2023-06-24T01:51:28;99140.63;;;16.35;100.00
51099;BME280;37146;48.210;16.234;2023-06-24T01:53:58;99139.09;;;16.31;100.00
51099;BME280;37146;48.210;16.234;2023-06-24T01:56:25;99136.28;;;16.33;100.00
51099;BME280;37146;48.210;16.234;2023-06-24T01:58:51;99144.72;;;16.28;100.00
51099;BME280;37146;48.210;16.234;2023-06-24T02:01:18;99134.38;;;16.22;100.00
51099;BME280;37146;48.210;16.234;2023-06-24T02:03:44;99135.16;;;16.24;100.00
51099;BME280;37146;48.210;16.234;2023-06-24T02:06:10;99146.34;;;16.31;100.00
51099;BME280;37146;48.210;16.234;2023-06-24T02:08:37;99144.63;;;16.30;100.00
51099;BME280;37146;48.210;16.234;2023-06-24T02:11:02;99152.59;;;16.31;100.00
51099;BME280;37146;48.210;16.234;2023-06-24T02:13:29;99144.63;;;16.30;100.00
51099;BME280;37146;48.210;16.234;2023-06-24T02:15:57;99146.66;;;16.26;100.00
51099;BME280;37146;48.210;16.234;2023-06-24T02:18:24;99148.97;;;16.19;100.00
51099;BME280;37146;48.210;16.234;2023-06-24T02:20:52;99145.06;;;16.23;100.00
51099;BME280;37146;48.210;16.234;2023-06-24T02:23:18;99137.84;;;16.24;100.00
51099;BME280;37146;48.210;16.234;2023-06-24T02:25:44;99143.88;;;16.28;100.00
51099;BME280;37146;48.210;16.234;2023-06-24T02:28:10;99145.41;;;16.19;100.00
51099;BME280;37146;48.210;16.234;2023-06-24T02:30:38;99144.84;;;16.27;100.00
51099;BME280;37146;48.210;16.234;2023-06-24T02:33:03;99160.06;;;16.28;100.00
51099;BME280;37146;48.210;16.234;2023-06-24T02:35:29;99153.41;;;16.20;100.00
51099;BME280;37146;48.210;16.234;2023-06-24T02:37:54;99152.19;;;16.25;100.00
51099;BME280;37146;48.210;16.234;2023-06-24T02:40:19;99161.81;;;16.16;100.00
51099;BME280;37146;48.210;16.234;2023-06-24T02:42:45;99159.78;;;16.19;100.00
51099;BME280;37146;48.210;16.234;2023-06-24T02:45:10;99162.00;;;16.26;100.00
51099;BME280;37146;48.210;16.234;2023-06-24T02:47:36;99150.16;;;16.15;100.00
51099;BME280;37146;48.210;16.234;2023-06-24T02:50:02;99156.19;;;16.19;100.00
51099;BME280;37146;48.210;16.234;2023-06-24T02:52:28;99156.75;;;16.11;100.00
51099;BME280;37146;48.210;16.234;2023-06-24T02:54:53;99165.97;;;15.96;100.00
51099;BME280;37146;48.210;16.234;2023-06-24T02:57:19;99160.09;;;16.02;100.00
51099;BME280;37146;48.210;16.234;2023-06-24T02:59:45;99160.56;;;15.96;100.00
51099;BME280;37146;48.210;16.234;2023-06-24T03:02:10;99167.69;;;15.97;100.00
51099;BME280;37146;48.210;16.234;2023-06-24T03:04:36;99182.78;;;15.99;100.00
51099;BME280;37146;48.210;16.234;2023-06-24T03:07:03;99180.41;;;15.95;100.00
51099;BME280;37146;48.210;16.234;2023-06-24T03:09:29;99183.13;;;15.95;100.00
51099;BME280;37146;48.210;16.234;2023-06-24T03:11:54;99175.66;;;15.98;100.00
51099;BME280;37146;48.210;16.234;2023-06-24T03:14:20;99183.78;;;15.85;100.00
51099;BME280;37146;48.210;16.234;2023-06-24T03:16:45;99191.91;;;15.84;100.00
51099;BME280;37146;48.210;16.234;2023-06-24T03:19:10;99180.63;;;15.79;100.00
51099;BME280;37146;48.210;16.234;2023-06-24T03:21:35;99185.13;;;15.78;100.00
51099;BME280;37146;48.210;16.234;2023-06-24T03:24:01;99188.28;;;15.72;100.00
51099;BME280;37146;48.210;16.234;2023-06-24T03:26:33;99189.22;;;15.71;100.00
51099;BME280;37146;48.210;16.234;2023-06-24T03:28:59;99201.31;;;15.78;100.00
51099;BME280;37146;48.210;16.234;2023-06-24T03:31:24;99204.66;;;15.69;100.00
51099;BME280;37146;48.210;16.234;2023-06-24T03:33:49;99192.13;;;15.68;100.00
51099;BME280;37146;48.210;16.234;2023-06-24T03:36:14;99195.91;;;15.65;100.00
51099;BME280;37146;48.210;16.234;2023-06-24T03:38:40;99201.75;;;15.59;100.00
51099;BME280;37146;48.210;16.234;2023-06-24T03:41:05;99199.47;;;15.53;100.00
51099;BME280;37146;48.210;16.234;2023-06-24T03:43:31;99189.69;;;15.65;100.00
51099;BME280;37146;48.210;16.234;2023-06-24T03:45:56;99195.69;;;15.55;100.00
51099;BME280;37146;48.210;16.234;2023-06-24T03:48:21;99188.59;;;15.54;100.00
51099;BME280;37146;48.210;16.234;2023-06-24T03:50:46;99196.69;;;15.54;100.00
51099;BME280;37146;48.210;16.234;2023-06-24T03:53:11;99182.31;;;15.54;100.00
51099;BME280;37146;48.210;16.234;2023-06-24T03:55:37;99181.88;;;15.47;100.00
51099;BME280;37146;48.210;16.234;2023-06-24T03:58:02;99182.78;;;15.48;100.00
51099;BME280;37146;48.210;16.234;2023-06-24T04:00:27;99196.78;;;15.53;100.00
51099;BME280;37146;48.210;16.234;2023-06-24T04:02:52;99188.78;;;15.38;100.00
51099;BME280;37146;48.210;16.234;2023-06-24T04:05:18;99188.25;;;15.33;100.00
51099;BME280;37146;48.210;16.234;2023-06-24T04:07:43;99189.09;;;15.34;100.00
51099;BME280;37146;48.210;16.234;2023-06-24T04:10:11;99194.06;;;15.40;100.00
51099;BME280;37146;48.210;16.234;2023-06-24T04:12:37;99206.91;;;15.36;100.00
51099;BME280;37146;48.210;16.234;2023-06-24T04:15:03;99188.78;;;15.38;100.00
51099;BME280;37146;48.210;16.234;2023-06-24T04:17:29;99208.06;;;15.32;100.00
51099;BME280;37146;48.210;16.234;2023-06-24T04:19:54;99200.31;;;15.27;100.00
51099;BME280;37146;48.210;16.234;2023-06-24T04:22:19;99210.13;;;15.28;100.00
51099;BME280;37146;48.210;16.234;2023-06-24T04:24:44;99210.31;;;15.25;100.00
51099;BME280;37146;48.210;16.234;2023-06-24T04:27:10;99210.50;;;15.22;100.00
51099;BME280;37146;48.210;16.234;2023-06-24T04:29:35;99217.56;;;15.25;100.00
51099;BME280;37146;48.210;16.234;2023-06-24T04:32:00;99208.59;;;15.24;100.00
51099;BME280;37146;48.210;16.234;2023-06-24T04:34:25;99218.09;;;15.30;100.00
51099;BME280;37146;48.210;16.234;2023-06-24T04:36:51;99209.34;;;15.39;100.00
51099;BME280;37146;48.210;16.234;2023-06-24T04:39:16;99219.63;;;15.34;100.00
51099;BME280;37146;48.210;16.234;2023-06-24T04:41:41;99217.88;;;15.20;100.00
51099;BME280;37146;48.210;16.234;2023-06-24T04:44:06;99231.25;;;15.35;100.00
51099;BME280;37146;48.210;16.234;2023-06-24T04:46:31;99231.25;;;15.35;100.00
51099;BME280;37146;48.210;16.234;2023-06-24T04:48:58;99232.97;;;15.36;100.00
51099;BME280;37146;48.210;16.234;2023-06-24T04:51:23;99235.91;;;15.45;100.00
51099;BME280;37146;48.210;16.234;2023-06-24T04:53:48;99237.72;;;15.45;100.00
51099;BME280;37146;48.210;16.234;2023-06-24T04:56:14;99242.91;;;15.48;100.00
51099;BME280;37146;48.210;16.234;2023-06-24T04:58:39;99246.56;;;15.47;100.00
51099;BME280;37146;48.210;16.234;2023-06-24T05:01:04;99254.88;;;15.44;100.00
51099;BME280;37146;48.210;16.234;2023-06-24T05:03:30;99248.31;;;15.48;100.00
51099;BME280;37146;48.210;16.234;2023-06-24T05:05:55;99242.41;;;15.56;100.00
51099;BME280;37146;48.210;16.234;2023-06-24T05:08:20;99245.22;;;15.54;100.00
51099;BME280;37146;48.210;16.234;2023-06-24T05:10:45;99236.88;;;15.57;100.00
51099;BME280;37146;48.210;16.234;2023-06-24T05:13:10;99235.72;;;15.61;100.00
51099;BME280;37146;48.210;16.234;2023-06-24T05:15:36;99242.81;;;15.50;100.00
51099;BME280;37146;48.210;16.234;2023-06-24T05:18:01;99253.50;;;15.51;100.00
51099;BME280;37146;48.210;16.234;2023-06-24T05:20:26;99253.72;;;15.61;100.00
51099;BME280;37146;48.210;16.234;2023-06-24T05:22:51;99255.13;;;15.67;100.00
51099;BME280;37146;48.210;16.234;2023-06-24T05:25:17;99256.13;;;15.79;100.00
51099;BME280;37146;48.210;16.234;2023-06-24T05:27:42;99251.00;;;15.61;100.00
51099;BME280;37146;48.210;16.234;2023-06-24T05:30:09;99256.84;;;15.68;100.00
51099;BME280;37146;48.210;16.234;2023-06-24T05:32:35;99269.03;;;15.60;100.00
51099;BME280;37146;48.210;16.234;2023-06-24T05:35:00;99271.59;;;15.49;100.00
51099;BME280;37146;48.210;16.234;2023-06-24T05:37:25;99279.38;;;15.67;100.00
51099;BME280;37146;48.210;16.234;2023-06-24T05:39:50;99282.94;;;15.54;100.00
51099;BME280;37146;48.210;16.234;2023-06-24T05:42:15;99288.22;;;15.56;100.00
51099;BME280;37146;48.210;16.234;2023-06-24T05:44:41;99301.69;;;15.43;100.00
51099;BME280;37146;48.210;16.234;2023-06-24T05:47:06;99301.00;;;15.39;100.00
51099;BME280;37146;48.210;16.234;2023-06-24T05:49:32;99289.22;;;15.27;100.00
51099;BME280;37146;48.210;16.234;2023-06-24T05:51:57;99292.34;;;15.74;100.00
51099;BME280;37146;48.210;16.234;2023-06-24T05:54:23;99297.75;;;15.74;100.00
51099;BME280;37146;48.210;16.234;2023-06-24T05:56:48;99303.13;;;15.61;100.00
51099;BME280;37146;48.210;16.234;2023-06-24T05:59:13;99304.97;;;15.74;100.00
51099;BME280;37146;48.210;16.234;2023-06-24T06:01:38;99307.56;;;15.75;100.00
51099;BME280;37146;48.210;16.234;2023-06-24T06:04:04;99306.34;;;15.54;100.00
51099;BME280;37146;48.210;16.234;2023-06-24T06:06:29;99301.69;;;15.43;100.00
51099;BME280;37146;48.210;16.234;2023-06-24T06:08:56;99304.13;;;15.33;100.00
51099;BME280;37146;48.210;16.234;2023-06-24T06:11:21;99310.16;;;15.37;100.00
51099;BME280;37146;48.210;16.234;2023-06-24T06:15:39;99322.06;;;15.60;100.00
51099;BME280;37146;48.210;16.234;2023-06-24T06:18:04;99327.03;;;15.53;100.00
51099;BME280;37146;48.210;16.234;2023-06-24T06:20:29;99329.75;;;15.53;100.00
51099;BME280;37146;48.210;16.234;2023-06-24T06:22:54;99326.63;;;15.59;100.00
51099;BME280;37146;48.210;16.234;2023-06-24T06:25:20;99332.31;;;15.55;100.00
51099;BME280;37146;48.210;16.234;2023-06-24T06:27:45;99332.00;;;15.59;100.00
51099;BME280;37146;48.210;16.234;2023-06-24T06:30:10;99346.78;;;15.26;100.00
51099;BME280;37146;48.210;16.234;2023-06-24T06:32:36;99343.38;;;15.37;100.00
51099;BME280;37146;48.210;16.234;2023-06-24T06:35:01;99341.94;;;15.59;100.00
51099;BME280;37146;48.210;16.234;2023-06-24T06:37:26;99338.66;;;15.41;100.00
51099;BME280;37146;48.210;16.234;2023-06-24T06:39:52;99334.75;;;15.45;100.00
51099;BME280;37146;48.210;16.234;2023-06-24T06:42:17;99342.47;;;15.51;100.00
51099;BME280;37146;48.210;16.234;2023-06-24T06:44:42;99346.63;;;15.42;100.00
51099;BME280;37146;48.210;16.234;2023-06-24T06:47:08;99342.03;;;15.57;100.00
51099;BME280;37146;48.210;16.234;2023-06-24T06:49:33;99340.91;;;15.47;100.00
51099;BME280;37146;48.210;16.234;2023-06-24T06:52:00;99344.03;;;15.41;100.00
51099;BME280;37146;48.210;16.234;2023-06-24T06:54:31;99347.28;;;15.19;100.00
51099;BME280;37146;48.210;16.234;2023-06-24T06:57:00;99359.78;;;15.20;100.00
51099;BME280;37146;48.210;16.234;2023-06-24T06:59:25;99350.69;;;15.08;100.00
51099;BME280;37146;48.210;16.234;2023-06-24T07:01:51;99346.13;;;15.23;100.00
51099;BME280;37146;48.210;16.234;2023-06-24T07:04:16;99355.63;;;15.28;100.00
51099;BME280;37146;48.210;16.234;2023-06-24T07:06:41;99345.06;;;15.11;100.00
51099;BME280;37146;48.210;16.234;2023-06-24T07:09:06;99348.50;;;15.27;100.00
51099;BME280;37146;48.210;16.234;2023-06-24T07:11:32;99349.63;;;15.38;100.00
51099;BME280;37146;48.210;16.234;2023-06-24T07:13:58;99355.88;;;15.38;100.00
51099;BME280;37146;48.210;16.234;2023-06-24T07:16:23;99350.84;;;15.19;100.00
51099;BME280;37146;48.210;16.234;2023-06-24T07:18:49;99360.25;;;15.26;100.00
51099;BME280;37146;48.210;16.234;2023-06-24T07:21:14;99367.63;;;15.37;100.00
51099;BME280;37146;48.210;16.234;2023-06-24T07:23:39;99368.53;;;15.23;100.00
51099;BME280;37146;48.210;16.234;2023-06-24T07:26:05;99362.16;;;15.24;100.00
51099;BME280;37146;48.210;16.234;2023-06-24T07:28:30;99375.72;;;15.37;100.00
51099;BME280;37146;48.210;16.234;2023-06-24T07:30:55;99377.78;;;15.19;100.00
51099;BME280;37146;48.210;16.234;2023-06-24T07:33:20;99375.16;;;15.32;100.00
51099;BME280;37146;48.210;16.234;2023-06-24T07:35:45;99376.72;;;15.22;100.00
51099;BME280;37146;48.210;16.234;2023-06-24T07:38:11;99370.53;;;15.34;100.00
51099;BME280;37146;48.210;16.234;2023-06-24T07:40:36;99379.22;;;15.25;100.00
51099;BME280;37146;48.210;16.234;2023-06-24T07:43:01;99375.91;;;15.34;100.00
51099;BME280;37146;48.210;16.234;2023-06-24T07:45:26;99371.53;;;15.46;100.00
51099;BME280;37146;48.210;16.234;2023-06-24T07:47:52;99373.47;;;15.44;100.00
51099;BME280;37146;48.210;16.234;2023-06-24T07:50:17;99380.69;;;15.43;100.00
51099;BME280;37146;48.210;16.234;2023-06-24T07:52:42;99378.00;;;15.43;100.00
51099;BME280;37146;48.210;16.234;2023-06-24T07:55:07;99381.16;;;15.50;100.00
51099;BME280;37146;48.210;16.234;2023-06-24T07:57:33;99376.00;;;15.60;100.00
51099;BME280;37146;48.210;16.234;2023-06-24T07:59:58;99370.91;;;15.55;100.00
51099;BME280;37146;48.210;16.234;2023-06-24T08:02:23;99373.84;;;15.52;100.00
51099;BME280;37146;48.210;16.234;2023-06-24T08:04:49;99377.72;;;15.61;100.00
51099;BME280;37146;48.210;16.234;2023-06-24T08:07:14;99382.88;;;15.51;100.00
51099;BME280;37146;48.210;16.234;2023-06-24T08:09:40;99384.09;;;15.60;100.00
51099;BME280;37146;48.210;16.234;2023-06-24T08:12:05;99386.34;;;15.53;100.00
51099;BME280;37146;48.210;16.234;2023-06-24T08:14:30;99386.69;;;15.61;100.00
51099;BME280;37146;48.210;16.234;2023-06-24T08:16:56;99390.72;;;15.69;100.00
51099;BME280;37146;48.210;16.234;2023-06-24T08:19:21;99398.56;;;15.86;100.00
51099;BME280;37146;48.210;16.234;2023-06-24T08:21:46;99394.16;;;15.71;100.00
51099;BME280;37146;48.210;16.234;2023-06-24T08:24:11;99399.81;;;15.81;100.00
51099;BME280;37146;48.210;16.234;2023-06-24T08:26:37;99406.34;;;15.91;100.00
51099;BME280;37146;48.210;16.234;2023-06-24T08:29:02;99407.69;;;15.84;100.00
51099;BME280;37146;48.210;16.234;2023-06-24T08:31:27;99415.75;;;15.71;100.00
51099;BME280;37146;48.210;16.234;2023-06-24T08:33:53;99424.69;;;15.71;100.00
51099;BME280;37146;48.210;16.234;2023-06-24T08:36:21;99422.84;;;15.86;100.00
51099;BME280;37146;48.210;16.234;2023-06-24T08:38:46;99422.69;;;15.75;100.00
51099;BME280;37146;48.210;16.234;2023-06-24T08:41:12;99422.25;;;15.81;100.00
51099;BME280;37146;48.210;16.234;2023-06-24T08:43:37;99424.50;;;15.74;100.00
51099;BME280;37146;48.210;16.234;2023-06-24T08:46:03;99413.38;;;15.79;100.00
51099;BME280;37146;48.210;16.234;2023-06-24T08:48:29;99419.72;;;15.65;100.00
51099;BME280;37146;48.210;16.234;2023-06-24T08:50:55;99416.59;;;15.71;100.00
51099;BME280;37146;48.210;16.234;2023-06-24T08:53:21;99414.53;;;15.89;100.00
51099;BME280;37146;48.210;16.234;2023-06-24T08:55:47;99412.75;;;16.03;100.00
51099;BME280;37146;48.210;16.234;2023-06-24T08:58:14;99411.13;;;16.00;100.00
51099;BME280;37146;48.210;16.234;2023-06-24T09:01:00;99412.75;;;16.03;100.00
51099;BME280;37146;48.210;16.234;2023-06-24T09:03:25;99413.09;;;15.84;100.00
51099;BME280;37146;48.210;16.234;2023-06-24T09:05:50;99410.81;;;16.05;100.00
51099;BME280;37146;48.210;16.234;2023-06-24T09:08:16;99420.28;;;15.98;100.00
51099;BME280;37146;48.210;16.234;2023-06-24T09:10:41;99410.78;;;15.92;100.00
51099;BME280;37146;48.210;16.234;2023-06-24T09:13:07;99419.97;;;16.02;100.00
51099;BME280;37146;48.210;16.234;2023-06-24T09:15:35;99420.19;;;16.12;100.00
51099;BME280;37146;48.210;16.234;2023-06-24T09:18:01;99423.13;;;16.09;100.00
51099;BME280;37146;48.210;16.234;2023-06-24T09:20:27;99435.94;;;16.05;100.00
51099;BME280;37146;48.210;16.234;2023-06-24T09:22:57;99426.09;;;15.91;100.00
51099;BME280;37146;48.210;16.234;2023-06-24T09:25:22;99430.31;;;15.96;100.00
51099;BME280;37146;48.210;16.234;2023-06-24T09:27:48;99435.91;;;15.92;100.00
51099;BME280;37146;48.210;16.234;2023-06-24T09:30:20;99434.78;;;16.22;100.00
51099;BME280;37146;48.210;16.234;2023-06-24T09:32:47;99433.03;;;15.96;100.00
51099;BME280;37146;48.210;16.234;2023-06-24T09:35:12;99435.75;;;16.08;100.00
51099;BME280;37146;48.210;16.234;2023-06-24T09:37:38;99439.84;;;16.01;100.00
51099;BME280;37146;48.210;16.234;2023-06-24T09:40:03;99437.53;;;15.95;100.00
51099;BME280;37146;48.210;16.234;2023-06-24T09:42:30;99435.09;;;16.05;100.00
51099;BME280;37146;48.210;16.234;2023-06-24T09:44:56;99434.22;;;16.04;100.00
51099;BME280;37146;48.210;16.234;2023-06-24T09:47:21;99433.22;;;15.92;100.00
51099;BME280;37146;48.210;16.234;2023-06-24T09:49:50;99433.97;;;15.95;100.00
51099;BME280;37146;48.210;16.234;2023-06-24T09:52:15;99433.97;;;15.95;100.00
51099;BME280;37146;48.210;16.234;2023-06-24T09:54:41;99435.63;;;15.83;100.00
51099;BME280;37146;48.210;16.234;2023-06-24T09:57:08;99435.91;;;15.92;100.00
51099;BME280;37146;48.210;16.234;2023-06-24T09:59:34;99448.94;;;15.86;100.00
51099;BME280;37146;48.210;16.234;2023-06-24T10:02:00;99444.25;;;15.75;100.00
51099;BME280;37146;48.210;16.234;2023-06-24T10:04:27;99446.38;;;15.70;100.00
51099;BME280;37146;48.210;16.234;2023-06-24T10:06:52;99454.34;;;15.71;100.00
51099;BME280;37146;48.210;16.234;2023-06-24T10:09:18;99444.41;;;15.59;100.00
51099;BME280;37146;48.210;16.234;2023-06-24T10:11:44;99433.63;;;15.86;100.00
51099;BME280;37146;48.210;16.234;2023-06-24T10:14:10;99435.25;;;15.47;100.00
51099;BME280;37146;48.210;16.234;2023-06-24T10:16:35;99446.78;;;15.64;100.00
51099;BME280;37146;48.210;16.234;2023-06-24T10:19:01;99437.94;;;15.61;100.00
51099;BME280;37146;48.210;16.234;2023-06-24T10:24:11;99434.78;;;15.55;100.00
51099;BME280;37146;48.210;16.234;2023-06-24T10:26:37;99434.28;;;15.63;100.00
51099;BME280;37146;48.210;16.234;2023-06-24T10:39:37;99438.16;;;15.71;100.00
51099;BME280;37146;48.210;16.234;2023-06-24T10:44:47;99430.97;;;15.72;100.00
51099;BME280;37146;48.210;16.234;2023-06-24T10:47:12;99425.06;;;15.80;100.00
51099;BME280;37146;48.210;16.234;2023-06-24T10:49:38;99417.38;;;15.73;100.00
51099;BME280;37146;48.210;16.234;2023-06-24T10:52:03;99411.19;;;15.44;100.00
51099;BME280;37146;48.210;16.234;2023-06-24T10:54:28;99414.97;;;15.69;100.00
51099;BME280;37146;48.210;16.234;2023-06-24T10:56:54;99410.34;;;15.71;100.00
51099;BME280;37146;48.210;16.234;2023-06-24T10:59:20;99406.88;;;15.69;100.00
51099;BME280;37146;48.210;16.234;2023-06-24T11:01:54;99404.66;;;15.75;100.00
51099;BME280;37146;48.210;16.234;2023-06-24T11:04:20;99406.25;;;15.78;100.00
51099;BME280;37146;48.210;16.234;2023-06-24T11:06:58;99406.94;;;15.82;100.00
51099;BME280;37146;48.210;16.234;2023-06-24T11:09:23;99414.03;;;15.83;100.00
51099;BME280;37146;48.210;16.234;2023-06-24T11:11:48;99407.81;;;15.82;100.00
51099;BME280;37146;48.210;16.234;2023-06-24T11:14:15;99401.19;;;16.01;100.00
51099;BME280;37146;48.210;16.234;2023-06-24T11:16:40;99392.88;;;16.04;100.00
51099;BME280;37146;48.210;16.234;2023-06-24T11:19:05;99396.34;;;16.06;100.00
51099;BME280;37146;48.210;16.234;2023-06-24T11:21:31;99391.03;;;15.91;100.00
51099;BME280;37146;48.210;16.234;2023-06-24T11:24:02;99394.50;;;15.79;100.00
51099;BME280;37146;48.210;16.234;2023-06-24T11:26:28;99392.31;;;15.99;100.00
51099;BME280;37146;48.210;16.234;2023-06-24T11:28:53;99401.81;;;15.91;100.00
51099;BME280;37146;48.210;16.234;2023-06-24T11:31:18;99399.06;;;15.79;100.00
51099;BME280;37146;48.210;16.234;2023-06-24T11:33:48;99403.47;;;15.80;100.00
51099;BME280;37146;48.210;16.234;2023-06-24T11:36:15;99394.38;;;15.68;100.00
51099;BME280;37146;48.210;16.234;2023-06-24T11:38:41;99387.66;;;15.88;100.00
51099;BME280;37146;48.210;16.234;2023-06-24T11:41:07;99394.63;;;15.77;100.00
51099;BME280;37146;48.210;16.234;2023-06-24T11:43:32;99399.13;;;15.77;100.00
51099;BME280;37146;48.210;16.234;2023-06-24T11:45:58;99392.94;;;15.89;100.00
51099;BME280;37146;48.210;16.234;2023-06-24T11:48:27;99402.28;;;15.84;100.00
51099;BME280;37146;48.210;16.234;2023-06-24T11:50:55;99398.94;;;15.80;100.00
51099;BME280;37146;48.210;16.234;2023-06-24T11:53:30;99398.84;;;15.82;100.00
51099;BME280;37146;48.210;16.234;2023-06-24T11:55:56;99399.59;;;15.84;100.00
51099;BME280;37146;48.210;16.234;2023-06-24T11:58:21;99388.47;;;15.75;100.00
51099;BME280;37146;48.210;16.234;2023-06-24T12:00:48;99391.81;;;15.79;100.00
51099;BME280;37146;48.210;16.234;2023-06-24T12:03:13;99391.63;;;15.82;100.00
51099;BME280;37146;48.210;16.234;2023-06-24T12:05:39;99387.25;;;15.67;100.00
51099;BME280;37146;48.210;16.234;2023-06-24T12:08:11;99383.69;;;15.66;100.00
51099;BME280;37146;48.210;16.234;2023-06-24T12:10:37;99387.50;;;15.76;100.00
51099;BME280;37146;48.210;16.234;2023-06-24T12:13:03;99373.16;;;15.76;100.00
51099;BME280;37146;48.210;16.234;2023-06-24T12:15:29;99382.81;;;15.66;100.00
51099;BME280;37146;48.210;16.234;2023-06-24T12:17:55;99383.19;;;15.74;100.00
51099;BME280;37146;48.210;16.234;2023-06-24T12:20:20;99387.19;;;15.81;100.00
51099;BME280;37146;48.210;16.234;2023-06-24T12:22:47;99394.75;;;15.76;100.00
51099;BME280;37146;48.210;16.234;2023-06-24T12:25:12;99395.28;;;15.81;100.00
51099;BME280;37146;48.210;16.234;2023-06-24T12:27:38;99398.16;;;15.92;100.00
51099;BME280;37146;48.210;16.234;2023-06-24T12:30:05;99399.44;;;16.00;100.00
51099;BME280;37146;48.210;16.234;2023-06-24T12:32:30;99395.38;;;16.07;100.00
51099;BME280;37146;48.210;16.234;2023-06-24T12:34:55;99401.69;;;16.20;100.00
51099;BME280;37146;48.210;16.234;2023-06-24T12:37:21;99399.25;;;16.16;100.00
51099;BME280;37146;48.210;16.234;2023-06-24T12:39:46;99392.78;;;16.05;100.00
51099;BME280;37146;48.210;16.234;2023-06-24T12:42:12;99394.94;;;16.00;100.00
51099;BME280;37146;48.210;16.234;2023-06-24T12:44:37;99399.25;;;16.03;100.00
51099;BME280;37146;48.210;16.234;2023-06-24T12:47:03;99395.59;;;16.04;100.00
51099;BME280;37146;48.210;16.234;2023-06-24T12:49:28;99402.69;;;15.92;100.00
51099;BME280;37146;48.210;16.234;2023-06-24T12:51:53;99408.47;;;15.86;100.00
51099;BME280;37146;48.210;16.234;2023-06-24T12:54:18;99406.25;;;15.92;100.00
51099;BME280;37146;48.210;16.234;2023-06-24T12:56:44;99406.75;;;15.85;100.00
51099;BME280;37146;48.210;16.234;2023-06-24T12:59:09;99408.16;;;15.90;100.00